Roan Mountain, TN (37687)

3:36 PM EST on February 13, 2016 (GMT -0500)
Ripshin Ridge | | Change Station
CLOSE
Current Station
Personal Weather Station
Location: Roan Mountain, TN
Elevation: 3572 ft
Nearby Weather Stations
Active Advisory: Winter Storm Watch

Elev 3572 ft 36.17 °N, 82.15 °W | Updated 13 minutes ago

Clear
Clear
18.5 °F
Feels Like 18 °F
N
0.0
Wind Variable Wind from WNW
Gusts 11.0 mph

Today
High -- | Low -- °F
--% Chance of Precip.
Yesterday
High -- | Low -- °F
Precip. -- in
Pressure 30.16 in
Visibility 10.0 miles
Clouds Clear
Windchill 18 °F
Dew Point 6 °F
Humidity 59%
Rainfall 0.00 in
Snow Depth Not available.
7:18 AM 6:07 PM
Waxing Crescent, 34% visible
METAR KTNB 132015Z AUTO 35010G19KT 310V030 10SM CLR M07/M18 A3016 RMK AO2 T10721182
Pressure 30.16 in
Visibility 10.0 miles
Clouds Clear
Windchill 18 °F
Dew Point 6 °F
Humidity 59%
Rainfall 0.00 in
Snow Depth Not available.
7:18 AM 6:07 PM
Waxing Crescent, 34% visible
METAR KTNB 132015Z AUTO 35010G19KT 310V030 10SM CLR M07/M18 A3016 RMK AO2 T10721182

10-Day Weather Forecast

Almanac

Astronomy

Feb. 13, 2016 Rise Set
Actual Time
Civil Twilight
Nautical Twilight
Astronomical Twilight
Moon
Length of Visible Light
Length of Day
Tomorrow will be .
, % of the Moon is Illuminated

Today's Extremes

State Highs State Lows

Community

WunderPhotos

Upload Photos

1,892,664 photos uploaded!

WunderBlog® & News

Nearby

Air Quality

  Air Quality AQ Index Pollutant
Not available.

Snow Depth

Station Depth Elevation

Earthquake Activity

City Distance Mag. Time & Date
Minimum magnitude displayed is 2.5.

Coastal Water Temperatures

Place Temperature

Stations

Nearby Weather Stations

Station Location Temp. Windchill Dew Point Humidity Wind Precip. Elev Updated Type
                   

Watches & Warnings

Winter Storm Watch
Issued: 3:27 PM EST Feb. 13, 2016 – National Weather Service

... Winter Storm Watch in effect from Sunday afternoon through
Monday afternoon...

The National Weather Service in Morristown has issued a Winter
Storm Watch... which is in effect from Sunday afternoon through
Monday afternoon.

* Event... snow and sleet accumulations of 2 to 5 inches are
expected in the northern Cumberland Plateau... northern Tennessee
Valley... and southwest Virginia. Higher elevations may see
between 3 and 6 inches of snow and sleet accumulation.

* Timing... snow is expected to begin accumulating around midday
Sunday... with a mix of snow... sleet... and rain late Sunday night
and Monday morning before changing to all rain Monday afternoon.

* Impacts... snow-covered roads will make driving conditions
hazardous.

Precautionary/preparedness actions...

A Winter Storm Watch means there is a potential for significant
snow... sleet... and/or ice accumulations. Future driving
conditions may become hazardous... so continue to monitor the
latest forecasts.